Time;durP1;ratioP1;P1;durP2;ratioP2;P2;SDS_P1;SDS_P2;PMS_P1;PMS_P2;Temp;Humidity;BMP_temperature;BMP_pressure;BME280_temperature;BME280_humidity;BME280_pressure;Samples;Min_cycle;Max_cycle;Signal;HPM_P1;HPM_P2
2021/01/11 00:00:10;;;;;;;27.30;12.88;;;;;;;2.95;59.35;100201.56;4310825;33;23088;-90
2021/01/11 00:02:36;;;;;;;27.37;11.68;;;;;;;3.01;59.34;100191.31;4336083;33;20112;-91
2021/01/11 00:05:02;;;;;;;29.92;12.23;;;;;;;2.98;59.34;100190.44;4336659;33;20104;-90
2021/01/11 00:07:27;;;;;;;50.45;19.65;;;;;;;2.93;59.34;100192.13;4323991;33;20138;-89
2021/01/11 00:09:52;;;;;;;31.45;13.98;;;;;;;2.66;59.32;100188.53;4311257;33;20151;-90
2021/01/11 00:12:19;;;;;;;26.77;12.25;;;;;;;2.64;59.32;100186.81;4310416;33;23438;-88
2021/01/11 00:14:44;;;;;;;25.15;11.55;;;;;;;2.77;59.33;100186.88;4322800;32;20179;-89
2021/01/11 00:17:09;;;;;;;31.25;11.95;;;;;;;2.81;59.34;100192.91;4348691;32;20155;-89
2021/01/11 00:19:35;;;;;;;28.58;12.23;;;;;;;2.82;59.34;100186.06;4310775;33;20154;-88
2021/01/11 00:22:00;;;;;;;32.55;12.80;;;;;;;2.97;59.35;100188.72;4334509;33;22239;-87
2021/01/11 00:24:26;;;;;;;31.25;13.98;;;;;;;2.81;59.34;100189.47;4310174;33;20092;-87
2021/01/11 00:26:52;;;;;;;31.98;13.98;;;;;;;2.54;59.32;100190.16;4348048;33;20448;-87
2021/01/11 00:29:18;;;;;;;28.67;12.18;;;;;;;2.77;59.33;100193.75;4322253;33;20098;-89
2021/01/11 00:31:44;;;;;;;30.58;13.93;;;;;;;2.64;59.33;100185.09;4322779;33;20589;-88
2021/01/11 00:34:09;;;;;;;30.08;13.68;;;;;;;2.50;59.32;100191.84;4323308;33;20091;-89
2021/01/11 00:36:35;;;;;;;30.85;13.73;;;;;;;2.65;59.33;100188.53;4335342;33;20115;-90
2021/01/11 00:39:00;;;;;;;32.55;12.93;;;;;;;2.44;59.32;100186.66;4310243;33;21894;-90
2021/01/11 00:41:25;;;;;;;33.30;13.13;;;;;;;2.20;59.30;100191.59;4310605;33;20573;-90
2021/01/11 00:43:51;;;;;;;26.95;12.65;;;;;;;2.40;59.31;100183.22;4310736;33;22327;-90
2021/01/11 00:46:21;;;;;;;30.25;12.90;;;;;;;2.36;59.31;100190.84;4311035;33;20131;-89
2021/01/11 00:48:46;;;;;;;31.15;13.62;;;;;;;2.37;59.31;100190.91;4323199;33;20095;-90
2021/01/11 00:51:12;;;;;;;28.55;11.85;;;;;;;2.56;59.32;100189.31;4322757;33;20406;-88
2021/01/11 00:53:37;;;;;;;28.12;13.02;;;;;;;2.31;59.31;100192.53;4322037;33;22099;-89
2021/01/11 00:56:03;;;;;;;33.63;13.40;;;;;;;2.27;59.30;100188.22;4322294;33;20422;-89
2021/01/11 00:58:28;;;;;;;31.85;13.65;;;;;;;2.37;59.31;100195.19;4310005;32;20388;-88
2021/01/11 01:00:53;;;;;;;33.00;13.43;;;;;;;2.29;59.31;100191.66;4334474;33;20378;-89
2021/01/11 01:03:19;;;;;;;31.67;14.18;;;;;;;2.25;59.30;100195.91;4334248;33;21075;-88
2021/01/11 01:05:44;;;;;;;36.22;16.37;;;;;;;2.17;59.30;100192.44;4322880;33;20143;-89
2021/01/11 01:08:09;;;;;;;34.50;13.98;;;;;;;2.34;59.30;100185.72;4321625;33;27126;-90
2021/01/11 01:10:35;;;;;;;31.00;14.13;;;;;;;2.22;59.30;100185.63;4322792;33;20196;-88
2021/01/11 01:13:01;;;;;;;33.50;14.82;;;;;;;2.25;59.31;100187.34;4322916;33;20155;-90
2021/01/11 01:15:26;;;;;;;35.67;14.13;;;;;;;2.10;59.29;100188.06;4309991;33;28516;-89
2021/01/11 01:17:51;;;;;;;34.65;14.02;;;;;;;2.15;59.30;100184.72;4310729;33;20158;-90
2021/01/11 01:20:17;;;;;;;29.70;12.63;;;;;;;2.03;59.29;100189.72;4310737;33;32200;-90
2021/01/11 01:22:44;;;;;;;29.65;12.20;;;;;;;1.98;59.29;100193.09;4323549;33;20135;-90
2021/01/11 01:25:10;;;;;;;25.17;12.37;;;;;;;2.02;59.29;100188.00;4339206;33;20107;-89
2021/01/11 01:27:35;;;;;;;32.35;12.98;;;;;;;2.19;59.30;100190.72;4335151;33;20126;-91
2021/01/11 01:30:01;;;;;;;29.37;12.65;;;;;;;1.87;59.28;100192.13;4323329;33;20143;-90
2021/01/11 01:32:26;;;;;;;27.02;11.18;;;;;;;1.87;59.28;100192.97;4311033;33;20104;-90
2021/01/11 01:34:52;;;;;;;30.27;12.00;;;;;;;2.02;59.29;100194.84;4310980;33;20107;-90
2021/01/11 01:37:17;;;;;;;27.90;12.90;;;;;;;1.84;59.28;100191.25;4322298;33;21317;-89
2021/01/11 01:39:42;;;;;;;30.23;13.27;;;;;;;2.02;59.29;100197.41;4322453;33;20099;-89
2021/01/11 01:42:08;;;;;;;27.95;12.43;;;;;;;1.95;59.28;100190.50;4321579;33;22548;-89
2021/01/11 01:44:33;;;;;;;28.48;12.13;;;;;;;1.96;59.28;100187.09;4322579;33;20130;-90
2021/01/11 01:46:59;;;;;;;27.70;11.57;;;;;;;2.02;59.29;100184.56;4310530;33;20159;-89
2021/01/11 01:49:24;;;;;;;31.98;13.48;;;;;;;1.90;59.28;100187.03;4310174;33;28751;-90
2021/01/11 01:51:50;;;;;;;29.45;12.40;;;;;;;1.89;59.28;100170.75;4333938;33;27895;-89
2021/01/11 01:54:15;;;;;;;29.73;12.55;;;;;;;1.89;59.28;100173.31;4321589;33;27232;-89
2021/01/11 01:56:40;;;;;;;26.67;12.07;;;;;;;2.07;59.29;100165.78;4321390;33;20154;-88
2021/01/11 01:59:06;;;;;;;24.67;11.40;;;;;;;2.25;59.30;100159.97;4321845;33;20219;-87
2021/01/11 02:01:33;;;;;;;28.42;11.12;;;;;;;2.18;59.30;100159.91;4321355;33;30273;-91
2021/01/11 02:03:59;;;;;;;29.92;11.48;;;;;;;2.04;59.29;100160.62;4323013;33;20749;-90
2021/01/11 02:06:25;;;;;;;25.42;12.37;;;;;;;2.29;59.31;100165.97;4322651;33;25280;-91
2021/01/11 02:09:01;;;;;;;27.13;11.65;;;;;;;2.14;59.30;100161.59;4335453;33;31113;-90
2021/01/11 02:11:56;;;;;;;33.40;13.52;;;;;;;1.88;59.28;100166.47;4336452;33;20230;-90
2021/01/11 02:14:49;;;;;;;33.15;14.80;;;;;;;1.77;59.28;100170.66;4334589;33;20110;-90
2021/01/11 02:17:21;;;;;;;27.17;12.65;;;;;;;1.79;59.28;100174.09;4334829;33;20091;-90
2021/01/11 02:20:08;;;;;;;34.33;13.30;;;;;;;1.84;59.29;100167.28;4322408;32;20107;-89
2021/01/11 02:22:44;;;;;;;33.28;13.95;;;;;;;1.72;59.27;100164.62;4334086;33;20134;-89
2021/01/11 02:25:39;;;;;;;29.90;13.23;;;;;;;1.69;59.27;100164.59;4322260;33;20084;-88
2021/01/11 02:28:16;;;;;;;28.95;12.85;;;;;;;1.81;59.28;100151.84;4335175;33;20154;-89
2021/01/11 02:30:41;;;;;;;36.00;14.40;;;;;;;1.89;59.28;100162.19;4335059;33;20387;-89
2021/01/11 02:33:08;;;;;;;28.42;12.95;;;;;;;1.82;59.28;100151.00;4322333;33;20107;-89
2021/01/11 02:35:56;;;;;;;31.80;13.77;;;;;;;1.70;59.27;100159.47;4322179;33;20179;-88
2021/01/11 02:38:22;;;;;;;36.35;15.07;;;;;;;1.54;59.26;100155.87;4334538;33;20130;-89
2021/01/11 02:40:48;;;;;;;35.55;15.70;;;;;;;1.62;59.28;100152.50;4309837;33;20896;-89
2021/01/11 02:43:13;;;;;;;38.38;16.27;;;;;;;1.44;59.25;100145.50;4322212;33;20064;-89
2021/01/11 02:45:39;;;;;;;37.45;14.87;;;;;;;1.46;59.25;100154.06;4309175;33;29683;-89
2021/01/11 02:48:10;;;;;;;38.35;16.30;;;;;;;1.38;59.25;100148.84;4309598;33;20247;-89
2021/01/11 02:50:48;;;;;;;38.42;16.85;;;;;;;1.27;59.25;100154.69;4321828;33;20108;-88
2021/01/11 02:53:38;;;;;;;39.25;17.50;;;;;;;1.22;59.24;100149.53;4334126;33;20088;-87
2021/01/11 02:56:04;;;;;;;39.78;17.20;;;;;;;0.92;59.23;100153.41;4347375;33;20126;-87
2021/01/11 02:58:32;;;;;;;39.65;16.00;;;;;;;0.99;59.23;100145.81;4321529;33;20449;-87
2021/01/11 03:00:58;;;;;;;42.00;17.37;;;;;;;1.07;59.23;100154.44;4333808;33;20146;-87
2021/01/11 03:03:24;;;;;;;41.45;17.35;;;;;;;0.98;59.23;100155.19;4333855;33;20519;-87
2021/01/11 03:05:50;;;;;;;42.70;17.25;;;;;;;0.81;59.21;100157.53;4320713;33;30509;-87
2021/01/11 03:08:23;;;;;;;38.95;17.25;;;;;;;1.01;59.23;100150.09;4309405;33;20103;-87
2021/01/11 03:10:51;;;;;;;37.75;16.77;;;;;;;0.95;59.22;100150.03;4321693;33;20103;-88
2021/01/11 03:13:17;;;;;;;40.45;17.25;;;;;;;0.85;59.22;100168.69;4333889;33;20177;-87
2021/01/11 03:15:42;;;;;;;41.92;17.02;;;;;;;0.93;59.23;100155.13;4321392;33;20088;-87
2021/01/11 03:18:08;;;;;;;40.70;17.08;;;;;;;0.98;59.24;100159.47;4320921;33;25110;-88
2021/01/11 03:20:33;;;;;;;43.83;17.60;;;;;;;1.00;59.23;100156.09;4333432;33;20394;-88
2021/01/11 03:22:59;;;;;;;41.65;17.87;;;;;;;0.90;59.23;100161.91;4320860;33;20877;-87
2021/01/11 03:25:24;;;;;;;41.35;16.70;;;;;;;0.97;59.23;100160.31;4320884;33;23307;-88
2021/01/11 03:27:49;;;;;;;43.92;17.75;;;;;;;0.88;59.22;100155.91;4320998;33;33032;-87
2021/01/11 03:30:15;;;;;;;38.03;16.25;;;;;;;0.82;59.22;100158.38;4311368;33;22369;-87
2021/01/11 03:32:40;;;;;;;43.22;19.20;;;;;;;1.02;59.23;100154.41;4336254;33;20520;-87
2021/01/11 03:35:06;;;;;;;44.15;17.33;;;;;;;0.92;59.23;100155.09;4321554;33;24323;-88
2021/01/11 03:37:31;;;;;;;39.55;17.42;;;;;;;0.89;59.23;100161.03;4321168;33;20107;-89
2021/01/11 03:39:57;;;;;;;38.00;17.40;;;;;;;0.97;59.24;100155.19;4320443;33;28112;-88
2021/01/11 03:42:22;;;;;;;37.75;17.37;;;;;;;0.98;59.24;100156.91;4320839;33;22727;-87
2021/01/11 03:44:48;;;;;;;37.50;16.27;;;;;;;0.97;59.24;100150.06;4309443;33;20450;-88
2021/01/11 03:47:14;;;;;;;44.03;17.60;;;;;;;0.89;59.23;100153.34;4321537;32;20146;-89
2021/01/11 03:49:39;;;;;;;37.63;16.60;;;;;;;0.82;59.23;100155.81;4333424;33;20125;-89
2021/01/11 03:52:05;;;;;;;42.78;17.10;;;;;;;0.76;59.22;100155.75;4321368;33;20458;-88
2021/01/11 03:54:30;;;;;;;41.88;17.45;;;;;;;0.86;59.22;100155.03;4321598;33;20433;-90
2021/01/11 03:56:55;;;;;;;37.78;16.65;;;;;;;0.84;59.23;100154.16;4309881;33;20198;-89
2021/01/11 03:59:21;;;;;;;41.40;17.05;;;;;;;0.96;59.23;100154.31;4310460;33;20517;-91
2021/01/11 04:01:46;;;;;;;39.30;16.33;;;;;;;0.94;59.22;100150.84;4310118;33;20129;-90
2021/01/11 04:04:12;;;;;;;45.33;17.25;;;;;;;0.76;59.22;100155.75;4310036;33;20135;-90
2021/01/11 04:06:37;;;;;;;42.15;18.33;;;;;;;0.83;59.23;100155.84;4309387;33;20169;-89
2021/01/11 04:09:03;;;;;;;38.92;16.80;;;;;;;0.79;59.21;100154.09;4321647;33;20211;-89
2021/01/11 04:11:28;;;;;;;41.80;17.40;;;;;;;0.81;59.21;100161.78;4308910;33;20122;-87
2021/01/11 04:13:53;;;;;;;47.33;18.75;;;;;;;0.80;59.21;100165.19;4320648;33;20143;-88
2021/01/11 04:16:20;;;;;;;43.75;18.37;;;;;;;0.90;59.23;100155.06;4346216;33;20115;-90
2021/01/11 04:18:45;;;;;;;45.38;18.65;;;;;;;0.69;59.21;100164.16;4309378;33;20387;-90
2021/01/11 04:21:14;;;;;;;44.85;19.00;;;;;;;0.79;59.22;100166.91;4309185;33;20460;-88
2021/01/11 04:23:39;;;;;;;47.53;19.70;;;;;;;0.76;59.22;100161.75;4308291;33;20452;-89
2021/01/11 04:26:07;;;;;;;41.88;18.02;;;;;;;0.52;59.20;100161.38;4308073;33;20145;-88
2021/01/11 04:28:32;;;;;;;41.20;18.20;;;;;;;0.57;59.20;100168.28;4332682;33;20103;-88
2021/01/11 04:30:58;;;;;;;43.40;18.08;;;;;;;0.64;59.21;100166.66;4319819;33;29918;-88
2021/01/11 04:33:23;;;;;;;40.88;18.75;;;;;;;0.62;59.21;100163.22;4320296;33;23359;-88
2021/01/11 04:35:48;;;;;;;43.35;18.27;;;;;;;0.80;59.22;100160.06;4320859;33;20163;-89
2021/01/11 04:38:14;;;;;;;47.67;19.42;;;;;;;0.66;59.22;100159.88;4332838;33;20126;-90
2021/01/11 04:40:39;;;;;;;42.65;18.67;;;;;;;0.58;59.21;100164.03;4320305;33;21763;-89
2021/01/11 04:43:11;;;;;;;47.17;17.92;;;;;;;0.69;59.22;100162.47;4321019;33;20926;-89
2021/01/11 04:45:37;;;;;;;43.72;19.10;;;;;;;0.63;59.21;100167.50;4335171;33;20170;-88
2021/01/11 04:48:02;;;;;;;50.63;19.52;;;;;;;0.32;59.19;100166.19;4321984;33;28602;-88
2021/01/11 04:50:28;;;;;;;47.90;19.20;;;;;;;0.30;59.19;100168.72;4310825;33;20091;-89
2021/01/11 04:52:53;;;;;;;42.60;18.10;;;;;;;0.37;59.19;100168.81;4335059;33;20104;-89
2021/01/11 04:55:19;;;;;;;45.60;19.70;;;;;;;0.34;59.19;100168.78;4310961;33;20191;-89
2021/01/11 04:57:55;;;;;;;48.87;20.40;;;;;;;0.40;59.20;100166.31;4335066;33;20115;-88
2021/01/11 05:00:25;;;;;;;51.75;18.95;;;;;;;0.25;59.19;100175.47;4322474;33;20165;-87
2021/01/11 05:02:55;;;;;;;;;;;;;;;0.50;59.20;100171.59;4323325;33;20453;-90
2021/01/11 05:05:21;;;;;;;48.47;19.27;;;;;;;0.60;59.21;100164.91;4334890;33;19994;-88
2021/01/11 05:07:46;;;;;;;51.95;20.23;;;;;;;0.16;59.19;100169.31;4310747;33;20242;-89
2021/01/11 05:10:12;;;;;;;52.15;21.10;;;;;;;0.08;59.19;100166.66;4310451;33;27968;-88
2021/01/11 05:12:37;;;;;;;52.38;22.33;;;;;;;0.08;59.19;100169.22;4310646;33;20437;-89
2021/01/11 05:15:15;;;;;;;52.17;21.42;;;;;;;0.11;59.18;100169.25;4310411;33;20131;-89
2021/01/11 05:17:44;;;;;;;48.63;22.02;;;;;;;0.04;59.18;100164.03;4335013;33;20103;-91
2021/01/11 05:20:12;;;;;;;52.88;22.17;;;;;;;-0.12;59.17;100162.87;4322868;33;20532;-91
2021/01/11 05:22:37;;;;;;;52.72;20.37;;;;;;;0.02;59.18;100163.13;4335414;33;20167;-89
2021/01/11 05:25:13;;;;;;;50.25;21.77;;;;;;;-0.10;59.17;100171.44;4346937;33;20152;-89
2021/01/11 05:27:38;;;;;;;50.63;20.45;;;;;;;-0.20;59.17;100167.88;4311080;33;20154;-90
2021/01/11 05:30:07;;;;;;;57.90;22.30;;;;;;;-0.06;59.17;100168.09;4324153;33;20441;-89
2021/01/11 05:32:32;;;;;;;50.80;20.23;;;;;;;-0.34;59.15;100157.38;4322821;33;20942;-89
2021/01/11 05:34:57;;;;;;;51.28;21.85;;;;;;;-0.36;59.15;100163.31;4310249;33;20108;-89
2021/01/11 05:37:39;;;;;;;52.92;21.50;;;;;;;-0.34;59.15;100162.50;4321551;33;34331;-88
2021/01/11 05:40:11;;;;;;;50.90;20.70;;;;;;;-0.24;59.16;100163.50;4335037;33;20180;-88
2021/01/11 05:42:38;;;;;;;48.53;19.77;;;;;;;-0.39;59.16;100176.91;4334563;33;21179;-89
2021/01/11 05:45:20;;;;;;;48.03;20.92;;;;;;;-0.37;59.15;100172.69;4310375;33;20519;-89
2021/01/11 05:47:53;;;;;;;55.30;24.25;;;;;;;-0.32;59.16;100178.72;4322506;33;20115;-89
2021/01/11 05:50:20;;;;;;;55.92;23.30;;;;;;;-0.53;59.14;100185.13;4334712;33;20099;-90
2021/01/11 05:52:45;;;;;;;56.83;24.10;;;;;;;-0.40;59.15;100185.41;4334599;33;20087;-89
2021/01/11 05:55:32;;;;;;;64.82;26.98;;;;;;;-0.48;59.14;100184.38;4334560;33;20133;-88
2021/01/11 05:58:03;;;;;;;60.88;26.23;;;;;;;-0.40;59.15;100192.22;4334117;33;20827;-88
2021/01/11 06:00:36;;;;;;;60.12;25.40;;;;;;;-0.62;59.14;100193.50;4322520;33;20158;-88
2021/01/11 06:03:03;;;;;;;65.00;26.48;;;;;;;-0.50;59.14;100197.97;4334381;33;20480;-89
2021/01/11 06:05:29;;;;;;;62.50;25.65;;;;;;;-0.58;59.14;100186.75;4322474;33;20111;-87
2021/01/11 06:07:55;;;;;;;60.55;24.15;;;;;;;-0.49;59.15;100190.31;4333961;33;20130;-87
2021/01/11 06:10:21;;;;;;;64.45;25.37;;;;;;;-0.58;59.15;100190.16;4333766;33;20091;-88
2021/01/11 06:12:46;;;;;;;57.97;24.80;;;;;;;-0.59;59.14;100185.87;4333659;33;20099;-87
2021/01/11 06:15:19;;;;;;;55.88;24.73;;;;;;;-0.71;59.14;100191.62;4309711;32;20162;-89
2021/01/11 06:17:46;;;;;;;53.53;21.50;;;;;;;-0.50;59.15;100196.28;4334202;33;20126;-88
2021/01/11 06:20:19;;;;;;;52.22;21.67;;;;;;;-0.69;59.14;100191.66;4322241;33;20161;-88
2021/01/11 06:22:44;;;;;;;54.53;21.10;;;;;;;-0.43;59.16;100190.47;4322853;33;20122;-88
2021/01/11 06:25:18;;;;;;;49.20;19.95;;;;;;;-0.53;59.14;100196.22;4334538;33;20153;-88
2021/01/11 06:27:57;;;;;;;57.20;21.40;;;;;;;-0.61;59.14;100205.44;4334267;33;21274;-89
2021/01/11 06:30:34;;;;;;;49.50;20.17;;;;;;;-0.60;59.14;100204.62;4322434;33;20086;-89
2021/01/11 06:33:09;;;;;;;46.55;17.92;;;;;;;-0.55;59.14;100200.44;4335175;33;20150;-90
2021/01/11 06:35:34;;;;;;;41.20;17.92;;;;;;;-0.38;59.15;100206.75;4334662;33;20119;-89
2021/01/11 06:38:22;;;;;;;50.55;18.45;;;;;;;-0.55;59.15;100214.94;4334397;33;20166;-89
2021/01/11 06:41:04;;;;;;;51.33;19.27;;;;;;;-0.55;59.14;100208.12;4335963;33;20120;-88
2021/01/11 06:43:43;;;;;;;47.30;20.35;;;;;;;-0.85;59.13;100210.06;4335763;33;20087;-89
2021/01/11 06:46:42;;;;;;;53.30;20.30;;;;;;;-0.72;59.13;100212.00;4322826;33;20103;-89
2021/01/11 06:49:10;;;;;;;50.50;20.02;;;;;;;-0.91;59.12;100212.47;4334734;33;20728;-89
2021/01/11 06:51:43;;;;;;;53.50;22.35;;;;;;;-0.84;59.13;100215.19;4322890;33;20118;-90
2021/01/11 06:54:12;;;;;;;57.65;23.85;;;;;;;-0.97;59.12;100214.06;4322070;33;20107;-87
2021/01/11 06:56:44;;;;;;;55.17;21.77;;;;;;;-0.75;59.13;100217.06;4345084;32;20540;-93
2021/01/11 06:59:13;;;;;;;56.53;22.70;;;;;;;-0.67;59.13;100228.34;4324733;32;20111;-93
2021/01/11 07:01:39;;;;;;;56.70;22.42;;;;;;;-0.77;59.13;100227.25;4328818;33;20112;-93
2021/01/11 07:04:05;;;;;;;56.15;22.40;;;;;;;-0.60;59.14;100222.50;4337045;33;20469;-92
2021/01/11 07:06:40;;;;;;;56.42;23.20;;;;;;;-0.64;59.14;100228.41;4334785;33;20178;-92
2021/01/11 07:09:14;;;;;;;53.63;22.55;;;;;;;-0.58;59.14;100219.97;4323763;33;20115;-91
2021/01/11 07:11:42;;;;;;;55.15;22.77;;;;;;;-0.60;59.14;100224.19;4336127;33;20499;-90
2021/01/11 07:14:08;;;;;;;59.78;23.40;;;;;;;-0.78;59.13;100225.53;4335800;33;20087;-91
2021/01/11 07:16:47;;;;;;;62.28;25.50;;;;;;;-0.83;59.13;100219.47;4337807;33;20413;-91
2021/01/11 07:19:13;;;;;;;57.25;24.63;;;;;;;-0.68;59.14;100221.50;4312855;33;20497;-90
2021/01/11 07:21:39;;;;;;;62.00;24.52;;;;;;;-0.68;59.14;100213.84;4345373;32;20063;-89
2021/01/11 07:24:05;;;;;;;61.55;25.85;;;;;;;-0.67;59.13;100213.00;4350301;32;20091;-90
2021/01/11 07:26:31;;;;;;;55.35;23.00;;;;;;;-0.79;59.14;100208.47;4340050;32;20103;-92
2021/01/11 07:28:57;;;;;;;52.72;22.80;;;;;;;-0.64;59.15;100206.25;4340905;32;20189;-94
2021/01/11 07:31:24;;;;;;;71.57;31.05;;;;;;;-0.55;59.15;100209.81;4353804;32;20166;-93
2021/01/11 07:34:01;;;;;;;60.50;24.33;;;;;;;-0.44;59.15;100209.22;4350174;32;20121;-86
2021/01/11 07:36:26;;;;;;;48.40;21.50;;;;;;;-0.42;59.16;100210.09;4343139;32;20142;-89
2021/01/11 07:39:07;;;;;;;53.45;20.33;;;;;;;-0.72;59.13;100214.56;4338796;32;20102;-86
2021/01/11 07:41:32;;;;;;;52.47;20.30;;;;;;;-0.86;59.13;100210.88;4354157;32;20099;-87
2021/01/11 07:44:15;;;;;;;49.78;21.20;;;;;;;-0.63;59.15;100219.87;4336906;32;20083;-86
2021/01/11 07:46:41;;;;;;;45.78;21.08;;;;;;;-0.72;59.12;100224.78;4336739;32;20145;-90
2021/01/11 07:49:12;;;;;;;54.85;20.48;;;;;;;-0.73;59.13;100226.50;4337004;32;20138;-90
2021/01/11 07:51:37;;;;;;;54.83;21.20;;;;;;;-0.39;59.15;100229.75;4349905;32;20151;-90
2021/01/11 07:54:08;;;;;;;50.08;20.37;;;;;;;-0.52;59.14;100236.31;4337571;32;20107;-89
2021/01/11 07:56:33;;;;;;;48.75;21.83;;;;;;;-0.52;59.14;100238.84;4363620;32;20055;-89
2021/01/11 07:58:59;;;;;;;51.88;20.45;;;;;;;-0.30;59.16;100232.47;4348468;32;20210;-89
2021/01/11 08:01:25;;;;;;;46.60;20.62;;;;;;;-0.44;59.15;100234.78;4349361;32;20122;-90
2021/01/11 08:03:54;;;;;;;47.35;20.05;;;;;;;-0.54;59.14;100235.41;4338434;32;20103;-88
2021/01/11 08:06:21;;;;;;;49.03;20.33;;;;;;;-0.41;59.15;100229.72;4348104;32;20173;-89
2021/01/11 08:08:46;;;;;;;44.05;19.48;;;;;;;-0.27;59.17;100242.75;4348511;32;20107;-88
2021/01/11 08:11:12;;;;;;;42.97;19.27;;;;;;;-0.26;59.16;100238.50;4360494;32;20368;-90
2021/01/11 08:13:37;;;;;;;51.95;20.35;;;;;;;-0.27;59.16;100247.00;4348001;32;20496;-88
2021/01/11 08:16:20;;;;;;;39.80;17.12;;;;;;;-0.17;59.17;100242.12;4348827;32;22878;-89
2021/01/11 08:18:46;;;;;;;53.67;21.17;;;;;;;-0.17;59.17;100246.38;4351321;32;20796;-90
2021/01/11 08:21:11;;;;;;;47.92;20.17;;;;;;;-0.21;59.17;100250.59;4337384;32;20111;-89
2021/01/11 08:23:37;;;;;;;44.85;18.08;;;;;;;-0.05;59.18;100255.13;4349730;32;20091;-87
2021/01/11 08:26:07;;;;;;;44.40;18.73;;;;;;;0.05;59.18;100263.84;4362356;32;20123;-88
2021/01/11 08:28:32;;;;;;;47.15;19.55;;;;;;;0.36;59.19;100256.72;4350220;32;20098;-90
2021/01/11 08:31:01;;;;;;;41.72;19.08;;;;;;;0.60;59.22;100259.69;4340031;32;20400;-90
2021/01/11 08:33:30;;;;;;;46.95;23.33;;;;;;;0.92;59.23;100257.63;4339178;32;20103;-90
2021/01/11 08:36:15;;;;;;;41.53;17.53;;;;;;;0.91;59.23;100250.75;4338986;32;20059;-92
2021/01/11 08:39:06;;;;;;;37.10;15.23;;;;;;;0.92;59.23;100253.34;4324232;33;20170;-91
2021/01/11 08:41:32;;;;;;;38.10;16.33;;;;;;;1.07;59.24;100267.25;4324132;33;20813;-89
2021/01/11 08:43:58;;;;;;;40.90;17.30;;;;;;;0.88;59.22;100268.66;4310055;33;20095;-87
2021/01/11 08:46:23;;;;;;;37.35;16.42;;;;;;;1.06;59.24;100268.09;4321566;33;20142;-87
2021/01/11 08:48:49;;;;;;;34.42;16.48;;;;;;;1.21;59.25;100261.47;4323342;33;20513;-91
2021/01/11 08:51:24;;;;;;;37.10;17.33;;;;;;;1.53;59.26;100264.47;4310013;33;28299;-87
2021/01/11 08:53:50;;;;;;;37.80;16.67;;;;;;;1.42;59.26;100268.59;4323143;33;20076;-91
2021/01/11 08:56:17;;;;;;;35.38;16.37;;;;;;;1.26;59.25;100268.38;4312147;33;20122;-89
2021/01/11 08:58:49;;;;;;;44.67;19.92;;;;;;;1.53;59.26;100272.16;4312356;33;20087;-91
2021/01/11 09:01:19;;;;;;;34.35;15.88;;;;;;;1.29;59.25;100276.97;4311913;33;20161;-89
2021/01/11 09:03:47;;;;;;;38.20;16.67;;;;;;;1.24;59.24;100276.03;4312054;33;20194;-91
2021/01/11 09:06:45;;;;;;;40.10;17.83;;;;;;;1.12;59.24;100279.28;4337781;33;20109;-90
2021/01/11 09:09:18;;;;;;;45.05;19.15;;;;;;;1.04;59.24;100277.47;4324745;33;20170;-91
2021/01/11 09:11:48;;;;;;;36.22;15.88;;;;;;;1.04;59.24;100274.91;4312586;33;20091;-89
2021/01/11 09:14:15;;;;;;;29.05;13.60;;;;;;;1.15;59.24;100276.75;4313784;33;20481;-90
2021/01/11 09:16:41;;;;;;;36.63;15.82;;;;;;;0.91;59.23;100281.53;4312211;33;20090;-90
2021/01/11 09:19:12;;;;;;;34.95;16.37;;;;;;;0.84;59.23;100282.28;4312113;33;21134;-90
2021/01/11 09:21:41;;;;;;;33.30;15.38;;;;;;;0.78;59.22;100287.31;4324350;33;20154;-90
2021/01/11 09:24:10;;;;;;;36.47;16.12;;;;;;;0.61;59.21;100281.91;4312485;33;20120;-90
2021/01/11 09:26:36;;;;;;;37.80;15.75;;;;;;;0.66;59.22;100277.72;4312642;33;20129;-93
2021/01/11 09:29:02;;;;;;;35.00;17.10;;;;;;;0.79;59.21;100279.66;4314102;33;20123;-88
2021/01/11 09:31:27;;;;;;;33.25;15.43;;;;;;;0.52;59.21;100277.50;4323046;33;20123;-87
2021/01/11 09:33:53;;;;;;;38.42;15.85;;;;;;;0.56;59.21;100270.72;4311904;33;20144;-89
2021/01/11 09:36:21;;;;;;;33.67;15.18;;;;;;;0.64;59.21;100276.81;4324312;33;20162;-89
2021/01/11 09:38:47;;;;;;;37.58;15.75;;;;;;;0.50;59.20;100297.09;4311328;33;20111;-89
2021/01/11 09:41:14;;;;;;;34.58;15.50;;;;;;;0.79;59.22;100284.78;4311114;33;20088;-87
2021/01/11 09:43:40;;;;;;;38.53;15.32;;;;;;;0.60;59.21;100293.00;4323661;33;20095;-88
2021/01/11 09:46:06;;;;;;;39.75;17.80;;;;;;;0.78;59.22;100282.19;4316969;33;20073;-93
2021/01/11 09:48:31;;;;;;;45.53;19.90;;;;;;;0.72;59.21;100285.53;4313721;33;20127;-91
2021/01/11 09:50:57;;;;;;;37.83;16.62;;;;;;;0.91;59.23;100269.56;4307314;33;20144;-89
2021/01/11 09:53:23;;;;;;;36.13;17.25;;;;;;;1.21;59.25;100266.63;4305034;33;20118;-87
2021/01/11 09:55:48;;;;;;;42.05;18.83;;;;;;;1.41;59.26;100277.13;4321091;33;20152;-94
2021/01/11 09:58:17;;;;;;;38.63;18.15;;;;;;;1.56;59.27;100270.47;4309535;33;20465;-94
2021/01/11 10:00:42;;;;;;;48.22;20.70;;;;;;;1.67;59.27;100281.75;4308903;33;20104;-93
2021/01/11 10:03:08;;;;;;;35.72;16.55;;;;;;;1.73;59.28;100271.53;4308104;33;20112;-96
2021/01/11 10:05:33;;;;;;;36.20;16.37;;;;;;;1.90;59.28;100264.06;4333246;33;20146;-94
2021/01/11 10:07:59;;;;;;;41.20;18.52;;;;;;;2.10;59.29;100259.97;4310466;33;20151;-93
2021/01/11 10:10:26;;;;;;;42.70;20.65;;;;;;;2.05;59.29;100259.94;4309203;33;20154;-95
2021/01/11 10:12:52;;;;;;;32.03;15.55;;;;;;;1.98;59.28;100262.41;4323659;33;20114;-91
2021/01/11 10:15:17;;;;;;;34.92;17.40;;;;;;;2.13;59.29;100260.03;4306790;33;20546;-89
2021/01/11 10:17:42;;;;;;;34.00;16.75;;;;;;;1.96;59.28;100266.69;4306591;33;20419;-94
2021/01/11 10:20:08;;;;;;;33.97;15.57;;;;;;;2.20;59.30;100261.81;4309484;33;20112;-91
2021/01/11 10:22:35;;;;;;;35.15;17.98;;;;;;;2.23;59.30;100264.37;4307153;33;20116;-94
2021/01/11 10:25:01;;;;;;;33.22;14.80;;;;;;;2.26;59.30;100258.41;4308072;33;20130;-92
2021/01/11 10:27:33;;;;;;;32.80;15.77;;;;;;;2.12;59.29;100263.41;4308019;33;20211;-96
2021/01/11 10:29:59;;;;;;;34.20;14.65;;;;;;;2.45;59.32;100261.19;4311214;33;20139;-91
2021/01/11 10:32:25;;;;;;;34.08;15.55;;;;;;;2.65;59.33;100257.94;4306635;33;20122;-91
2021/01/11 10:34:50;;;;;;;32.50;15.98;;;;;;;2.51;59.32;100260.38;4310897;33;20120;-91
2021/01/11 10:37:18;;;;;;;36.95;15.75;;;;;;;2.59;59.32;100253.56;4308192;33;21132;-95
2021/01/11 10:39:44;;;;;;;36.30;16.55;;;;;;;2.66;59.33;100251.94;4306505;33;20127;-91
2021/01/11 10:42:09;;;;;;;39.58;18.48;;;;;;;2.62;59.32;100256.19;4305496;33;20131;-92
2021/01/11 10:44:35;;;;;;;39.92;18.27;;;;;;;2.67;59.33;100253.66;4305957;33;20135;-92
2021/01/11 10:47:01;;;;;;;37.97;17.85;;;;;;;2.69;59.33;100251.97;4333852;32;20200;-95
2021/01/11 10:49:27;;;;;;;39.50;17.95;;;;;;;2.75;59.33;100250.28;4364349;32;20472;-95
2021/01/11 10:51:54;;;;;;;35.78;17.73;;;;;;;2.62;59.32;100248.47;4364005;32;20103;-93
2021/01/11 10:54:19;;;;;;;34.40;17.92;;;;;;;2.77;59.33;100253.72;4339469;32;20134;-95
2021/01/11 10:56:44;;;;;;;35.03;16.50;;;;;;;2.81;59.34;100246.03;4338833;32;20137;-88
2021/01/11 10:59:10;;;;;;;35.22;16.37;;;;;;;2.77;59.33;100251.16;4348796;32;20103;-91
2021/01/11 11:01:36;;;;;;;33.60;16.02;;;;;;;2.75;59.34;100246.84;4336906;32;20103;-90
2021/01/11 11:04:02;;;;;;;36.03;16.00;;;;;;;2.76;59.33;100246.87;4338252;32;20111;-90
2021/01/11 11:06:27;;;;;;;34.72;16.52;;;;;;;2.76;59.33;100240.84;4336344;32;20141;-88
2021/01/11 11:08:53;;;;;;;37.83;16.48;;;;;;;2.91;59.34;100240.13;4349570;32;20197;-91
2021/01/11 11:11:18;;;;;;;36.03;16.45;;;;;;;3.00;59.34;100241.03;4349341;32;20091;-90
2021/01/11 11:13:44;;;;;;;34.70;16.67;;;;;;;3.04;59.35;100231.62;4337181;32;20194;-91
2021/01/11 11:16:10;;;;;;;39.30;18.25;;;;;;;2.96;59.35;100231.56;4336713;32;20198;-92
2021/01/11 11:18:36;;;;;;;37.60;18.35;;;;;;;2.88;59.34;100230.69;4349176;32;20102;-88